PWSweather.com
Personal Weather Stations
Station Observations
AS787
Cloppers Mill East, Germantown, MD 20874-2154

Cloppers Mill EastGermantown, MD 20874-2154

Lat: 39.1522, Lon: -77.2679

Elevation: 318

Station Type: 1-Wire

http://www.cloppermillweather.org/

High Low Average
Temperature 51.0°F10.6°C 38.0°F3.3°C 42.5°F5.8°C
Dew Point 40.4°F4.7°C 20.4°F-6.4°C 28.0°F-2.2°C
Winds 2.3 mph 3.7 kmh Calm Calm 1.0 mph SW1.6 kmh SW
Wind Gusts 7.0 mph11.3 kmh -- 3.0 mph4.8 kmh
Humidity 92% 46% 57%
Pressure 29.98 in1015.2 mb 29.83 in1010.2 mb -
Precipitation 0.00 in0.0 mm - -
Hour Temp Dew Point Humidity Winds Wind Gusts Pressure Precip Precip Rate Daily Precip Total
12:14 AM 38.6°F3.7°C 19.2°F-7.1°C 45% 1.5 mph SW2.4 kmh SW 5.0 mph8.0 kmh 29.98 in1015.2 mb 0.00 in0.0 mm 0.00 in0.0 mm 0.00 in0.0 mm
12:44 AM 38.8°F3.8°C 19.9°F-6.7°C 46% 0.7 mph SSW1.1 kmh SSW 4.0 mph6.4 kmh 29.98 in1015.2 mb 0.00 in0.0 mm 0.00 in0.0 mm 0.00 in0.0 mm
01:14 AM 39.5°F4.2°C 20.4°F-6.4°C 46% 1.7 mph SW2.7 kmh SW 7.0 mph11.3 kmh 29.98 in1015.2 mb 0.00 in0.0 mm 0.00 in0.0 mm 0.00 in0.0 mm
01:44 AM 39.9°F4.4°C 21.1°F-6.1°C 47% 1.2 mph SSW1.9 kmh SSW 5.0 mph8.0 kmh 29.98 in1015.2 mb 0.01 in0.3 mm 0.02 in0.5 mm 0.01 in0.3 mm
02:14 AM 39.9°F4.4°C 21.3°F-5.9°C 47% 2.3 mph SW3.7 kmh SW 6.0 mph9.7 kmh 29.97 in1014.9 mb 0.00 in0.0 mm 0.00 in0.0 mm 0.01 in0.3 mm
02:44 AM 39.8°F4.3°C 21.7°F-5.7°C 48% Calm Calm 6.0 mph9.7 kmh 29.98 in1015.2 mb 0.00 in0.0 mm 0.00 in0.0 mm 0.01 in0.3 mm
03:14 AM 39.6°F4.2°C 22.0°F-5.6°C 49% 0.9 mph SSW1.4 kmh SSW 5.0 mph8.0 kmh 29.98 in1015.2 mb 0.00 in0.0 mm 0.00 in0.0 mm 0.01 in0.3 mm
03:44 AM 39.4°F4.1°C 21.8°F-5.7°C 49% 2.0 mph SW3.2 kmh SW 5.0 mph8.0 kmh 29.98 in1015.2 mb 0.00 in0.0 mm 0.00 in0.0 mm 0.01 in0.3 mm
04:14 AM 39.3°F4.1°C 22.0°F-5.6°C 50% 2.0 mph SW3.2 kmh SW 5.0 mph8.0 kmh 29.97 in1014.9 mb 0.00 in0.0 mm 0.00 in0.0 mm 0.01 in0.3 mm
04:44 AM 39.1°F3.9°C 22.0°F-5.6°C 50% 1.1 mph SW1.8 kmh SW 4.0 mph6.4 kmh 29.97 in1014.9 mb 0.00 in0.0 mm 0.00 in0.0 mm 0.01 in0.3 mm
05:14 AM 38.9°F3.8°C 22.3°F-5.4°C 51% 1.5 mph SSW2.4 kmh SSW 4.0 mph6.4 kmh 29.98 in1015.2 mb 0.00 in0.0 mm 0.00 in0.0 mm 0.01 in0.3 mm
05:44 AM 38.6°F3.7°C 22.4°F-5.3°C 52% 0.7 mph SW1.1 kmh SW 3.0 mph4.8 kmh 29.98 in1015.2 mb 0.00 in0.0 mm 0.00 in0.0 mm 0.01 in0.3 mm
06:14 AM 38.5°F3.6°C 22.4°F-5.3°C 52% 0.9 mph SSW1.4 kmh SSW 4.0 mph6.4 kmh 29.98 in1015.2 mb 0.00 in0.0 mm 0.00 in0.0 mm 0.01 in0.3 mm
06:44 AM 38.3°F3.5°C 22.7°F-5.2°C 53% 1.4 mph SW2.3 kmh SW 3.0 mph4.8 kmh 29.97 in1014.9 mb 0.00 in0.0 mm 0.00 in0.0 mm 0.01 in0.3 mm
07:14 AM 38.1°F3.4°C 23.0°F-5.0°C 54% Calm Calm -- 29.97 in1014.9 mb 0.00 in0.0 mm 0.00 in0.0 mm 0.01 in0.3 mm
07:44 AM 38.0°F3.3°C 22.8°F-5.1°C 54% 0.1 mph SW0.2 kmh SW 1.0 mph1.6 kmh 29.97 in1014.9 mb 0.00 in0.0 mm 0.00 in0.0 mm 0.01 in0.3 mm
08:14 AM 38.0°F3.3°C 23.1°F-4.9°C 55% Calm Calm -- 29.97 in1014.9 mb 0.00 in0.0 mm 0.00 in0.0 mm 0.01 in0.3 mm
08:44 AM 38.2°F3.4°C 23.4°F-4.8°C 55% 0.1 mph SW0.2 kmh SW 2.0 mph3.2 kmh 29.97 in1014.9 mb 0.00 in0.0 mm 0.00 in0.0 mm 0.01 in0.3 mm
09:14 AM 38.4°F3.6°C 23.6°F-4.7°C 55% 1.0 mph SW1.6 kmh SW 3.0 mph4.8 kmh 29.97 in1014.9 mb 0.00 in0.0 mm 0.00 in0.0 mm 0.01 in0.3 mm
09:44 AM 39.0°F3.9°C 24.0°F-4.4°C 55% 0.9 mph SW1.4 kmh SW 3.0 mph4.8 kmh 29.98 in1015.2 mb 0.00 in0.0 mm 0.00 in0.0 mm 0.01 in0.3 mm
10:14 AM 39.8°F4.3°C 24.3°F-4.3°C 53% 0.4 mph SW0.6 kmh SW 4.0 mph6.4 kmh 29.98 in1015.2 mb 0.00 in0.0 mm 0.00 in0.0 mm 0.01 in0.3 mm
10:44 AM 40.3°F4.6°C 24.7°F-4.1°C 53% 0.7 mph SW1.1 kmh SW 3.0 mph4.8 kmh 29.98 in1015.2 mb 0.00 in0.0 mm 0.00 in0.0 mm 0.01 in0.3 mm
11:14 AM 41.2°F5.1°C 24.8°F-4.0°C 52% 1.8 mph SW2.9 kmh SW 6.0 mph9.7 kmh 29.97 in1014.9 mb 0.00 in0.0 mm 0.00 in0.0 mm 0.01 in0.3 mm
11:44 AM 41.9°F5.5°C 25.1°F-3.8°C 51% 0.0 mph SW0.0 kmh SW 3.0 mph4.8 kmh 29.97 in1014.9 mb 0.00 in0.0 mm 0.00 in0.0 mm 0.01 in0.3 mm
12:14 PM 42.5°F5.8°C 25.7°F-3.5°C 51% 0.9 mph SW1.4 kmh SW 3.0 mph4.8 kmh 29.96 in1014.6 mb 0.00 in0.0 mm 0.00 in0.0 mm 0.01 in0.3 mm
12:44 PM 43.0°F6.1°C 26.2°F-3.2°C 51% 0.3 mph SW0.5 kmh SW 2.0 mph3.2 kmh 29.95 in1014.2 mb 0.00 in0.0 mm 0.00 in0.0 mm 0.01 in0.3 mm
01:14 PM 43.5°F6.4°C 26.1°F-3.3°C 50% 1.1 mph SW1.8 kmh SW 3.0 mph4.8 kmh 29.94 in1013.9 mb 0.00 in0.0 mm 0.00 in0.0 mm 0.01 in0.3 mm
01:44 PM 43.7°F6.5°C 26.5°F-3.1°C 50% 0.7 mph SW1.1 kmh SW 4.0 mph6.4 kmh 29.93 in1013.5 mb 0.00 in0.0 mm 0.00 in0.0 mm 0.01 in0.3 mm
02:14 PM 44.5°F6.9°C 27.1°F-2.7°C 50% 1.1 mph SSW1.8 kmh SSW 4.0 mph6.4 kmh 29.91 in1012.9 mb 0.00 in0.0 mm 0.00 in0.0 mm 0.01 in0.3 mm
02:44 PM 45.7°F7.6°C 28.1°F-2.2°C 50% Calm Calm 2.0 mph3.2 kmh 29.90 in1012.5 mb 0.00 in0.0 mm 0.00 in0.0 mm 0.01 in0.3 mm
03:14 PM 46.9°F8.3°C 28.7°F-1.8°C 49% 0.4 mph S0.6 kmh S 3.0 mph4.8 kmh 29.89 in1012.2 mb 0.00 in0.0 mm 0.00 in0.0 mm 0.01 in0.3 mm
03:44 PM 47.7°F8.7°C 29.1°F-1.6°C 48% 0.9 mph SW1.4 kmh SW 3.0 mph4.8 kmh 29.88 in1011.9 mb 0.00 in0.0 mm 0.00 in0.0 mm 0.01 in0.3 mm
04:14 PM 48.3°F9.1°C 29.7°F-1.3°C 48% 0.7 mph WSW1.1 kmh WSW 4.0 mph6.4 kmh 29.88 in1011.9 mb 0.00 in0.0 mm 0.00 in0.0 mm 0.01 in0.3 mm
04:44 PM 48.7°F9.3°C 30.1°F-1.1°C 48% Calm Calm 3.0 mph4.8 kmh 29.88 in1011.9 mb 0.00 in0.0 mm 0.00 in0.0 mm 0.01 in0.3 mm
05:14 PM 48.4°F9.1°C 30.6°F-0.8°C 50% Calm Calm -- 29.87 in1011.5 mb 0.00 in0.0 mm 0.00 in0.0 mm 0.01 in0.3 mm
05:44 PM 48.0°F8.9°C 30.8°F-0.7°C 51% Calm Calm -- 29.86 in1011.2 mb 0.00 in0.0 mm 0.00 in0.0 mm 0.01 in0.3 mm
06:14 PM 46.9°F8.3°C 31.1°F-0.5°C 54% Calm Calm -- 29.86 in1011.2 mb 0.00 in0.0 mm 0.00 in0.0 mm 0.01 in0.3 mm
06:44 PM 44.6°F7.0°C 32.5°F0.3°C 62% Calm Calm -- 29.86 in1011.2 mb 0.00 in0.0 mm 0.00 in0.0 mm 0.01 in0.3 mm
07:14 PM 43.2°F6.2°C 32.2°F0.1°C 65% Calm Calm -- 29.86 in1011.2 mb 0.00 in0.0 mm 0.00 in0.0 mm 0.01 in0.3 mm
07:44 PM 42.5°F5.8°C 32.4°F0.2°C 67% Calm Calm -- 29.85 in1010.8 mb 0.00 in0.0 mm 0.00 in0.0 mm 0.01 in0.3 mm
08:14 PM 42.7°F5.9°C 33.3°F0.7°C 69% Calm Calm -- 29.85 in1010.8 mb 0.00 in0.0 mm 0.00 in0.0 mm 0.01 in0.3 mm
08:44 PM 49.3°F9.6°C 35.1°F1.7°C 58% 0.4 mph SSW0.6 kmh SSW 4.0 mph6.4 kmh 29.84 in1010.5 mb 0.00 in0.0 mm 0.00 in0.0 mm 0.01 in0.3 mm
09:14 PM 51.0°F10.6°C 34.6°F1.4°C 53% Calm Calm 3.0 mph4.8 kmh 29.83 in1010.2 mb 0.00 in0.0 mm 0.00 in0.0 mm 0.01 in0.3 mm
09:44 PM 50.5°F10.3°C 36.2°F2.3°C 58% Calm Calm 7.0 mph11.3 kmh 29.85 in1010.8 mb 0.00 in0.0 mm 0.00 in0.0 mm 0.01 in0.3 mm
10:14 PM 45.9°F7.7°C 40.0°F4.4°C 80% Calm Calm -- 29.86 in1011.2 mb 0.01 in0.3 mm 0.02 in0.5 mm 0.02 in0.5 mm
10:44 PM 43.8°F6.6°C 40.4°F4.7°C 88% Calm Calm -- 29.86 in1011.2 mb 0.04 in1.0 mm 0.06 in1.5 mm 0.05 in1.3 mm
11:14 PM 42.8°F6.0°C 40.2°F4.6°C 91% Calm Calm -- 29.89 in1012.2 mb 0.01 in0.3 mm 0.00 in0.0 mm 0.05 in1.3 mm
11:44 PM 41.5°F5.3°C 39.1°F3.9°C 91% Calm Calm 5.0 mph8.0 kmh 29.89 in1012.2 mb 0.05 in1.3 mm 0.08 in2.0 mm 0.09 in2.3 mm